sensor_id;sensor_type;location;lat;lon;timestamp;pressure;altitude;pressure_sealevel;temperature;humidity
31483;BME280;18103;52.246;8.052;2023-03-21T00:01:17;100431.97;;;8.72;83.68
31483;BME280;18103;52.246;8.052;2023-03-21T00:03:44;100440.28;;;8.92;82.95
31483;BME280;18103;52.246;8.052;2023-03-21T00:06:11;100433.03;;;8.83;83.22
31483;BME280;18103;52.246;8.052;2023-03-21T00:08:38;100430.81;;;8.77;83.74
31483;BME280;18103;52.246;8.052;2023-03-21T00:11:08;100427.97;;;8.80;83.52
31483;BME280;18103;52.246;8.052;2023-03-21T00:13:35;100431.22;;;8.83;83.38
31483;BME280;18103;52.246;8.052;2023-03-21T00:16:11;100423.75;;;8.77;83.90
31483;BME280;18103;52.246;8.052;2023-03-21T00:18:47;100425.44;;;8.78;83.91
31483;BME280;18103;52.246;8.052;2023-03-21T00:21:18;100422.81;;;8.78;84.01
31483;BME280;18103;52.246;8.052;2023-03-21T00:23:46;100419.34;;;8.78;84.10
31483;BME280;18103;52.246;8.052;2023-03-21T00:26:13;100418.91;;;8.84;83.51
31483;BME280;18103;52.246;8.052;2023-03-21T00:28:40;100419.78;;;8.84;83.79
31483;BME280;18103;52.246;8.052;2023-03-21T00:31:11;100412.59;;;8.86;83.48
31483;BME280;18103;52.246;8.052;2023-03-21T00:33:37;100417.44;;;8.80;84.08
31483;BME280;18103;52.246;8.052;2023-03-21T00:36:06;100414.50;;;8.84;83.88
31483;BME280;18103;52.246;8.052;2023-03-21T00:38:37;100411.13;;;8.82;84.03
31483;BME280;18103;52.246;8.052;2023-03-21T00:41:07;100405.66;;;8.72;84.66
31483;BME280;18103;52.246;8.052;2023-03-21T00:43:33;100408.06;;;8.76;84.70
31483;BME280;18103;52.246;8.052;2023-03-21T00:46:03;100405.13;;;8.80;84.36
31483;BME280;18103;52.246;8.052;2023-03-21T00:48:29;100397.84;;;8.84;84.18
31483;BME280;18103;52.246;8.052;2023-03-21T00:50:57;100392.81;;;8.81;84.12
31483;BME280;18103;52.246;8.052;2023-03-21T00:53:25;100397.13;;;8.82;84.12
31483;BME280;18103;52.246;8.052;2023-03-21T00:55:50;100392.91;;;8.79;84.46
31483;BME280;18103;52.246;8.052;2023-03-21T00:58:16;100381.34;;;8.82;84.56
31483;BME280;18103;52.246;8.052;2023-03-21T01:00:45;100383.03;;;8.83;84.58
31483;BME280;18103;52.246;8.052;2023-03-21T01:03:16;100383.81;;;8.96;83.85
31483;BME280;18103;52.246;8.052;2023-03-21T01:05:47;100385.09;;;8.90;83.85
31483;BME280;18103;52.246;8.052;2023-03-21T01:08:36;100377.63;;;8.97;83.72
31483;BME280;18103;52.246;8.052;2023-03-21T01:11:08;100374.34;;;8.94;84.01
31483;BME280;18103;52.246;8.052;2023-03-21T01:13:37;100372.56;;;8.94;83.59
31483;BME280;18103;52.246;8.052;2023-03-21T01:16:04;100383.22;;;8.93;83.82
31483;BME280;18103;52.246;8.052;2023-03-21T01:18:30;100371.72;;;8.94;84.25
31483;BME280;18103;52.246;8.052;2023-03-21T01:20:58;100373.28;;;8.96;83.49
31483;BME280;18103;52.246;8.052;2023-03-21T01:23:25;100366.34;;;8.95;83.72
31483;BME280;18103;52.246;8.052;2023-03-21T01:25:52;100374.31;;;9.06;83.37
31483;BME280;18103;52.246;8.052;2023-03-21T01:28:17;100369.25;;;9.03;83.30
31483;BME280;18103;52.246;8.052;2023-03-21T01:30:48;100372.34;;;8.97;83.43
31483;BME280;18103;52.246;8.052;2023-03-21T01:33:18;100368.78;;;8.98;83.56
31483;BME280;18103;52.246;8.052;2023-03-21T01:35:44;100371.59;;;9.08;83.38
31483;BME280;18103;52.246;8.052;2023-03-21T01:38:10;100370.00;;;9.05;83.26
31483;BME280;18103;52.246;8.052;2023-03-21T01:40:36;100364.97;;;9.02;83.29
31483;BME280;18103;52.246;8.052;2023-03-21T01:43:28;100365.16;;;8.99;83.53
31483;BME280;18103;52.246;8.052;2023-03-21T01:49:34;100364.22;;;9.00;83.44
31483;BME280;18103;52.246;8.052;2023-03-21T01:52:08;100367.19;;;8.96;83.67
31483;BME280;18103;52.246;8.052;2023-03-21T01:54:37;100351.81;;;9.02;83.59
31483;BME280;18103;52.246;8.052;2023-03-21T01:57:09;100349.38;;;8.99;83.62
31483;BME280;18103;52.246;8.052;2023-03-21T01:59:44;100346.19;;;9.07;83.29
31483;BME280;18103;52.246;8.052;2023-03-21T02:02:14;100359.91;;;8.99;83.88
31483;BME280;18103;52.246;8.052;2023-03-21T02:04:45;100355.16;;;9.04;83.82
31483;BME280;18103;52.246;8.052;2023-03-21T02:07:17;100347.38;;;9.03;83.90
31483;BME280;18103;52.246;8.052;2023-03-21T02:09:48;100347.25;;;9.04;83.65
31483;BME280;18103;52.246;8.052;2023-03-21T02:12:15;100346.19;;;9.07;83.98
31483;BME280;18103;52.246;8.052;2023-03-21T02:14:47;100347.66;;;9.11;83.43
31483;BME280;18103;52.246;8.052;2023-03-21T02:28:10;100331.63;;;9.14;83.68
31483;BME280;18103;52.246;8.052;2023-03-21T02:31:12;100332.56;;;9.13;83.48
31483;BME280;18103;52.246;8.052;2023-03-21T02:44:59;100325.03;;;9.08;84.63
31483;BME280;18103;52.246;8.052;2023-03-21T02:47:41;100320.56;;;9.22;84.04
31483;BME280;18103;52.246;8.052;2023-03-21T02:52:38;100326.13;;;9.17;84.45
31483;BME280;18103;52.246;8.052;2023-03-21T02:55:07;100319.69;;;9.21;84.26
31483;BME280;18103;52.246;8.052;2023-03-21T02:57:39;100316.28;;;9.08;84.73
31483;BME280;18103;52.246;8.052;2023-03-21T03:00:07;100323.22;;;9.09;85.04
31483;BME280;18103;52.246;8.052;2023-03-21T03:02:36;100313.72;;;9.19;84.78
31483;BME280;18103;52.246;8.052;2023-03-21T03:05:14;100315.00;;;9.14;84.86
31483;BME280;18103;52.246;8.052;2023-03-21T03:10:39;100308.44;;;9.19;84.97
31483;BME280;18103;52.246;8.052;2023-03-21T03:23:56;100298.34;;;9.13;85.40
31483;BME280;18103;52.246;8.052;2023-03-21T03:29:05;100300.88;;;9.15;85.59
31483;BME280;18103;52.246;8.052;2023-03-21T03:31:38;100298.50;;;9.23;85.40
31483;BME280;18103;52.246;8.052;2023-03-21T03:34:09;100302.94;;;9.22;85.16
31483;BME280;18103;52.246;8.052;2023-03-21T03:36:40;100291.59;;;9.22;85.04
31483;BME280;18103;52.246;8.052;2023-03-21T03:39:09;100294.09;;;9.23;85.54
31483;BME280;18103;52.246;8.052;2023-03-21T03:42:05;100293.47;;;9.20;85.70
31483;BME280;18103;52.246;8.052;2023-03-21T03:44:33;100300.53;;;9.19;85.91
31483;BME280;18103;52.246;8.052;2023-03-21T03:47:16;100290.59;;;9.23;86.18
31483;BME280;18103;52.246;8.052;2023-03-21T03:49:56;100282.00;;;9.21;85.38
31483;BME280;18103;52.246;8.052;2023-03-21T03:52:30;100290.97;;;9.18;85.80
31483;BME280;18103;52.246;8.052;2023-03-21T03:54:57;100287.25;;;9.21;85.96
31483;BME280;18103;52.246;8.052;2023-03-21T03:57:24;100281.28;;;9.30;85.49
31483;BME280;18103;52.246;8.052;2023-03-21T03:59:50;100291.44;;;9.12;86.31
31483;BME280;18103;52.246;8.052;2023-03-21T04:02:16;100288.31;;;9.18;85.89
31483;BME280;18103;52.246;8.052;2023-03-21T04:04:44;100279.47;;;9.19;86.38
31483;BME280;18103;52.246;8.052;2023-03-21T04:07:10;100281.47;;;9.16;86.92
31483;BME280;18103;52.246;8.052;2023-03-21T04:09:35;100291.31;;;9.14;87.36
31483;BME280;18103;52.246;8.052;2023-03-21T04:12:04;100282.38;;;9.28;87.00
31483;BME280;18103;52.246;8.052;2023-03-21T04:14:29;100281.22;;;9.32;86.69
31483;BME280;18103;52.246;8.052;2023-03-21T04:16:59;100270.16;;;9.27;87.49
31483;BME280;18103;52.246;8.052;2023-03-21T04:19:25;100282.13;;;9.19;87.59
31483;BME280;18103;52.246;8.052;2023-03-21T04:21:51;100274.38;;;9.29;87.58
31483;BME280;18103;52.246;8.052;2023-03-21T04:24:19;100272.06;;;9.24;87.18
31483;BME280;18103;52.246;8.052;2023-03-21T04:26:45;100273.88;;;9.24;87.28
31483;BME280;18103;52.246;8.052;2023-03-21T04:29:10;100280.53;;;9.17;87.99
31483;BME280;18103;52.246;8.052;2023-03-21T04:31:38;100279.97;;;9.00;88.83
31483;BME280;18103;52.246;8.052;2023-03-21T04:34:08;100273.53;;;9.04;88.61
31483;BME280;18103;52.246;8.052;2023-03-21T04:36:37;100267.25;;;9.18;87.36
31483;BME280;18103;52.246;8.052;2023-03-21T04:39:13;100260.31;;;9.17;88.13
31483;BME280;18103;52.246;8.052;2023-03-21T04:41:40;100264.75;;;9.17;88.12
31483;BME280;18103;52.246;8.052;2023-03-21T04:44:06;100262.69;;;9.20;87.80
31483;BME280;18103;52.246;8.052;2023-03-21T04:46:32;100266.91;;;9.23;87.90
31483;BME280;18103;52.246;8.052;2023-03-21T04:49:09;100261.75;;;9.21;88.06
31483;BME280;18103;52.246;8.052;2023-03-21T04:51:37;100260.88;;;9.10;88.82
31483;BME280;18103;52.246;8.052;2023-03-21T04:54:05;100258.03;;;9.13;88.61
31483;BME280;18103;52.246;8.052;2023-03-21T04:56:32;100260.03;;;9.09;88.69
31483;BME280;18103;52.246;8.052;2023-03-21T04:59:05;100260.31;;;9.17;88.62
31483;BME280;18103;52.246;8.052;2023-03-21T05:01:32;100256.09;;;9.15;88.35
31483;BME280;18103;52.246;8.052;2023-03-21T05:04:02;100256.84;;;9.17;88.52
31483;BME280;18103;52.246;8.052;2023-03-21T05:06:28;100262.53;;;9.11;88.54
31483;BME280;18103;52.246;8.052;2023-03-21T05:08:55;100253.41;;;9.03;89.10
31483;BME280;18103;52.246;8.052;2023-03-21T05:11:25;100255.16;;;9.16;88.14
31483;BME280;18103;52.246;8.052;2023-03-21T05:13:50;100257.50;;;9.07;88.30
31483;BME280;18103;52.246;8.052;2023-03-21T05:16:18;100246.53;;;9.14;87.82
31483;BME280;18103;52.246;8.052;2023-03-21T05:18:48;100255.19;;;9.27;87.09
31483;BME280;18103;52.246;8.052;2023-03-21T05:21:14;100246.97;;;9.32;87.06
31483;BME280;18103;52.246;8.052;2023-03-21T05:23:42;100247.03;;;9.19;87.56
31483;BME280;18103;52.246;8.052;2023-03-21T05:26:08;100251.50;;;9.30;86.49
31483;BME280;18103;52.246;8.052;2023-03-21T05:28:34;100248.34;;;9.24;86.72
31483;BME280;18103;52.246;8.052;2023-03-21T05:31:05;100240.09;;;9.18;87.31
31483;BME280;18103;52.246;8.052;2023-03-21T05:33:31;100242.09;;;9.14;87.37
31483;BME280;18103;52.246;8.052;2023-03-21T05:35:57;100247.88;;;9.19;87.00
31483;BME280;18103;52.246;8.052;2023-03-21T05:38:23;100245.13;;;9.21;86.54
31483;BME280;18103;52.246;8.052;2023-03-21T05:40:50;100245.59;;;9.26;86.18
31483;BME280;18103;52.246;8.052;2023-03-21T05:43:16;100235.78;;;9.17;86.78
31483;BME280;18103;52.246;8.052;2023-03-21T05:45:43;100231.09;;;9.20;86.59
31483;BME280;18103;52.246;8.052;2023-03-21T05:48:09;100238.69;;;9.25;86.31
31483;BME280;18103;52.246;8.052;2023-03-21T05:50:34;100241.28;;;9.14;86.39
31483;BME280;18103;52.246;8.052;2023-03-21T05:53:00;100241.44;;;9.23;86.38
31483;BME280;18103;52.246;8.052;2023-03-21T05:55:25;100239.50;;;9.25;86.09
31483;BME280;18103;52.246;8.052;2023-03-21T05:57:55;100245.84;;;9.23;86.85
31483;BME280;18103;52.246;8.052;2023-03-21T06:00:21;100245.00;;;9.22;86.04
31483;BME280;18103;52.246;8.052;2023-03-21T06:02:46;100240.34;;;9.26;86.00
31483;BME280;18103;52.246;8.052;2023-03-21T06:05:12;100246.06;;;9.20;86.47
31483;BME280;18103;52.246;8.052;2023-03-21T06:07:39;100241.88;;;9.17;86.21
31483;BME280;18103;52.246;8.052;2023-03-21T06:10:08;100242.88;;;9.28;85.70
31483;BME280;18103;52.246;8.052;2023-03-21T06:12:34;100249.94;;;9.27;85.77
31483;BME280;18103;52.246;8.052;2023-03-21T06:15:00;100255.56;;;9.34;85.24
31483;BME280;18103;52.246;8.052;2023-03-21T06:17:30;100248.16;;;9.28;85.47
31483;BME280;18103;52.246;8.052;2023-03-21T06:19:55;100259.16;;;9.33;85.12
31483;BME280;18103;52.246;8.052;2023-03-21T06:22:25;100250.88;;;9.26;85.03
31483;BME280;18103;52.246;8.052;2023-03-21T06:24:50;100255.69;;;9.32;85.43
31483;BME280;18103;52.246;8.052;2023-03-21T06:27:19;100255.03;;;9.17;85.57
31483;BME280;18103;52.246;8.052;2023-03-21T06:29:47;100259.25;;;9.20;85.80
31483;BME280;18103;52.246;8.052;2023-03-21T06:32:15;100260.69;;;9.24;85.53
31483;BME280;18103;52.246;8.052;2023-03-21T06:34:41;100256.59;;;9.20;86.04
31483;BME280;18103;52.246;8.052;2023-03-21T06:37:07;100261.16;;;9.18;86.52
31483;BME280;18103;52.246;8.052;2023-03-21T06:39:37;100265.19;;;9.11;86.90
31483;BME280;18103;52.246;8.052;2023-03-21T06:42:02;100260.31;;;9.17;86.52
31483;BME280;18103;52.246;8.052;2023-03-21T06:44:28;100258.13;;;9.11;87.43
31483;BME280;18103;52.246;8.052;2023-03-21T06:46:54;100258.72;;;9.15;87.25
31483;BME280;18103;52.246;8.052;2023-03-21T06:49:19;100254.75;;;9.09;87.72
31483;BME280;18103;52.246;8.052;2023-03-21T06:51:45;100262.09;;;9.17;87.32
31483;BME280;18103;52.246;8.052;2023-03-21T06:54:16;100258.41;;;9.19;87.22
31483;BME280;18103;52.246;8.052;2023-03-21T06:56:43;100257.19;;;9.12;87.39
31483;BME280;18103;52.246;8.052;2023-03-21T06:59:11;100268.38;;;9.27;86.89
31483;BME280;18103;52.246;8.052;2023-03-21T07:01:39;100254.56;;;9.12;87.10
31483;BME280;18103;52.246;8.052;2023-03-21T07:04:07;100262.47;;;9.12;87.36
31483;BME280;18103;52.246;8.052;2023-03-21T07:06:33;100262.34;;;9.14;87.47
31483;BME280;18103;52.246;8.052;2023-03-21T07:09:00;100255.97;;;9.16;87.78
31483;BME280;18103;52.246;8.052;2023-03-21T07:11:26;100254.97;;;9.30;86.78
31483;BME280;18103;52.246;8.052;2023-03-21T07:13:52;100256.06;;;9.28;86.94
31483;BME280;18103;52.246;8.052;2023-03-21T07:16:18;100258.06;;;9.24;86.34
31483;BME280;18103;52.246;8.052;2023-03-21T07:18:43;100257.81;;;9.27;86.42
31483;BME280;18103;52.246;8.052;2023-03-21T07:21:10;100264.81;;;9.39;86.08
31483;BME280;18103;52.246;8.052;2023-03-21T07:23:35;100258.56;;;9.29;86.32
31483;BME280;18103;52.246;8.052;2023-03-21T07:26:03;100265.50;;;9.30;86.37
31483;BME280;18103;52.246;8.052;2023-03-21T07:28:31;100270.31;;;9.36;85.95
31483;BME280;18103;52.246;8.052;2023-03-21T07:31:00;100263.59;;;9.32;86.30
31483;BME280;18103;52.246;8.052;2023-03-21T07:33:27;100259.66;;;9.38;85.95
31483;BME280;18103;52.246;8.052;2023-03-21T07:35:55;100270.56;;;9.33;86.05
31483;BME280;18103;52.246;8.052;2023-03-21T07:38:24;100262.53;;;9.35;86.39
31483;BME280;18103;52.246;8.052;2023-03-21T07:40:49;100266.13;;;9.34;86.60
31483;BME280;18103;52.246;8.052;2023-03-21T07:43:18;100268.94;;;9.55;86.26
31483;BME280;18103;52.246;8.052;2023-03-21T07:45:49;100259.41;;;9.30;87.42
31483;BME280;18103;52.246;8.052;2023-03-21T07:48:17;100266.06;;;9.22;87.96
31483;BME280;18103;52.246;8.052;2023-03-21T07:50:43;100258.34;;;9.32;87.88
31483;BME280;18103;52.246;8.052;2023-03-21T07:53:13;100263.63;;;9.44;87.39
31483;BME280;18103;52.246;8.052;2023-03-21T07:55:41;100266.16;;;9.45;87.19
31483;BME280;18103;52.246;8.052;2023-03-21T07:58:06;100262.69;;;9.45;87.38
31483;BME280;18103;52.246;8.052;2023-03-21T08:00:32;100272.25;;;9.46;87.32
31483;BME280;18103;52.246;8.052;2023-03-21T08:03:00;100267.25;;;9.54;87.24
31483;BME280;18103;52.246;8.052;2023-03-21T08:05:35;100266.25;;;9.44;87.72
31483;BME280;18103;52.246;8.052;2023-03-21T08:08:01;100266.81;;;9.36;88.18
31483;BME280;18103;52.246;8.052;2023-03-21T08:10:29;100267.34;;;9.41;88.34
31483;BME280;18103;52.246;8.052;2023-03-21T08:12:55;100263.28;;;9.48;87.79
31483;BME280;18103;52.246;8.052;2023-03-21T08:15:20;100264.31;;;9.34;88.82
31483;BME280;18103;52.246;8.052;2023-03-21T08:17:50;100265.66;;;9.40;88.47
31483;BME280;18103;52.246;8.052;2023-03-21T08:20:18;100269.66;;;9.57;87.68
31483;BME280;18103;52.246;8.052;2023-03-21T08:22:45;100268.66;;;9.47;88.07
31483;BME280;18103;52.246;8.052;2023-03-21T08:25:12;100268.19;;;9.41;88.15
31483;BME280;18103;52.246;8.052;2023-03-21T08:27:41;100264.47;;;9.44;88.56
31483;BME280;18103;52.246;8.052;2023-03-21T08:30:11;100264.28;;;9.58;87.92
31483;BME280;18103;52.246;8.052;2023-03-21T08:32:39;100268.56;;;9.48;88.43
31483;BME280;18103;52.246;8.052;2023-03-21T08:35:07;100265.69;;;9.51;88.11
31483;BME280;18103;52.246;8.052;2023-03-21T08:37:37;100264.47;;;9.44;88.00
31483;BME280;18103;52.246;8.052;2023-03-21T08:40:07;100265.19;;;9.46;88.61
31483;BME280;18103;52.246;8.052;2023-03-21T08:42:36;100270.72;;;9.43;88.87
31483;BME280;18103;52.246;8.052;2023-03-21T08:45:04;100260.53;;;9.50;88.63
31483;BME280;18103;52.246;8.052;2023-03-21T08:47:30;100277.66;;;9.55;88.69
31483;BME280;18103;52.246;8.052;2023-03-21T08:50:00;100274.44;;;9.52;88.77
31483;BME280;18103;52.246;8.052;2023-03-21T08:52:26;100267.84;;;9.46;89.39
31483;BME280;18103;52.246;8.052;2023-03-21T08:54:57;100261.94;;;9.42;89.07
31483;BME280;18103;52.246;8.052;2023-03-21T08:57:28;100266.03;;;9.47;89.42
31483;BME280;18103;52.246;8.052;2023-03-21T08:59:53;100267.25;;;9.65;88.71
31483;BME280;18103;52.246;8.052;2023-03-21T09:02:19;100269.56;;;9.58;89.16
31483;BME280;18103;52.246;8.052;2023-03-21T09:04:44;100261.97;;;9.54;89.41
31483;BME280;18103;52.246;8.052;2023-03-21T09:07:14;100260.19;;;9.54;89.27
31483;BME280;18103;52.246;8.052;2023-03-21T09:09:41;100266.03;;;9.47;89.51
31483;BME280;18103;52.246;8.052;2023-03-21T09:12:06;100259.47;;;9.64;89.38
31483;BME280;18103;52.246;8.052;2023-03-21T09:14:32;100254.81;;;9.67;89.71
31483;BME280;18103;52.246;8.052;2023-03-21T09:17:00;100260.94;;;9.68;89.26
31483;BME280;18103;52.246;8.052;2023-03-21T09:19:26;100250.38;;;9.68;89.22
31483;BME280;18103;52.246;8.052;2023-03-21T09:21:54;100250.88;;;9.73;88.73
31483;BME280;18103;52.246;8.052;2023-03-21T09:24:20;100254.59;;;9.70;89.43
31483;BME280;18103;52.246;8.052;2023-03-21T09:26:46;100254.03;;;9.78;89.59
31483;BME280;18103;52.246;8.052;2023-03-21T09:29:15;100259.28;;;9.67;89.24
31483;BME280;18103;52.246;8.052;2023-03-21T09:31:43;100250.06;;;9.72;88.85
31483;BME280;18103;52.246;8.052;2023-03-21T09:34:08;100253.91;;;9.80;89.23
31483;BME280;18103;52.246;8.052;2023-03-21T09:36:34;100250.28;;;9.81;88.94
31483;BME280;18103;52.246;8.052;2023-03-21T09:39:00;100251.50;;;9.76;89.21
31483;BME280;18103;52.246;8.052;2023-03-21T09:49:43;100244.31;;;9.90;89.20
31483;BME280;18103;52.246;8.052;2023-03-21T09:52:40;100246.00;;;9.91;89.04
31483;BME280;18103;52.246;8.052;2023-03-21T09:55:19;100244.31;;;9.90;88.79
31483;BME280;18103;52.246;8.052;2023-03-21T09:57:50;100249.59;;;9.90;89.10
31483;BME280;18103;52.246;8.052;2023-03-21T10:00:26;100237.72;;;9.96;88.81
31483;BME280;18103;52.246;8.052;2023-03-21T10:02:58;100243.25;;;9.92;88.82
31483;BME280;18103;52.246;8.052;2023-03-21T10:05:32;100237.84;;;9.94;88.89
31483;BME280;18103;52.246;8.052;2023-03-21T10:10:38;100243.22;;;9.81;89.07
31483;BME280;18103;52.246;8.052;2023-03-21T10:13:16;100237.84;;;9.83;89.27
31483;BME280;18103;52.246;8.052;2023-03-21T10:15:46;100238.66;;;9.94;89.16
31483;BME280;18103;52.246;8.052;2023-03-21T10:18:21;100237.84;;;9.94;89.06
31483;BME280;18103;52.246;8.052;2023-03-21T10:20:49;100225.41;;;9.96;89.02
31483;BME280;18103;52.246;8.052;2023-03-21T10:23:18;100242.28;;;10.05;88.59
31483;BME280;18103;52.246;8.052;2023-03-21T10:28:19;100232.19;;;10.10;88.62
31483;BME280;18103;52.246;8.052;2023-03-21T10:30:51;100234.50;;;10.15;88.56
31483;BME280;18103;52.246;8.052;2023-03-21T10:33:22;100230.19;;;10.02;88.51
31483;BME280;18103;52.246;8.052;2023-03-21T10:35:54;100233.53;;;9.93;89.21
31483;BME280;18103;52.246;8.052;2023-03-21T10:38:23;100231.75;;;9.93;89.02
31483;BME280;18103;52.246;8.052;2023-03-21T10:40:49;100230.28;;;10.12;88.56
31483;BME280;18103;52.246;8.052;2023-03-21T10:43:18;100224.53;;;9.96;89.32
31483;BME280;18103;52.246;8.052;2023-03-21T10:45:45;100231.63;;;9.95;88.91
31483;BME280;18103;52.246;8.052;2023-03-21T10:48:11;100233.19;;;10.09;88.57
31483;BME280;18103;52.246;8.052;2023-03-21T10:50:37;100230.91;;;10.16;88.23
31483;BME280;18103;52.246;8.052;2023-03-21T10:53:22;100233.75;;;10.13;88.21
31483;BME280;18103;52.246;8.052;2023-03-21T10:55:53;100230.88;;;10.04;88.40
31483;BME280;18103;52.246;8.052;2023-03-21T10:58:25;100222.88;;;10.06;88.43
31483;BME280;18103;52.246;8.052;2023-03-21T11:01:03;100216.75;;;10.05;88.42
31483;BME280;18103;52.246;8.052;2023-03-21T11:03:34;100218.69;;;10.03;88.80
31483;BME280;18103;52.246;8.052;2023-03-21T11:08:28;100212.31;;;10.06;88.84
31483;BME280;18103;52.246;8.052;2023-03-21T11:11:03;100216.59;;;10.18;88.33
31483;BME280;18103;52.246;8.052;2023-03-21T11:13:37;100216.50;;;10.08;88.85
31483;BME280;18103;52.246;8.052;2023-03-21T11:16:25;100216.88;;;10.04;88.95
31483;BME280;18103;52.246;8.052;2023-03-21T11:18:58;100217.94;;;10.13;89.06
31483;BME280;18103;52.246;8.052;2023-03-21T11:21:26;100201.78;;;10.06;88.63
31483;BME280;18103;52.246;8.052;2023-03-21T11:23:55;100207.06;;;10.06;88.75
31483;BME280;18103;52.246;8.052;2023-03-21T11:26:35;100205.72;;;10.00;89.02
31483;BME280;18103;52.246;8.052;2023-03-21T11:31:47;100203.44;;;10.07;88.87
31483;BME280;18103;52.246;8.052;2023-03-21T11:34:52;100202.34;;;10.09;88.84
31483;BME280;18103;52.246;8.052;2023-03-21T11:37:26;100191.44;;;10.14;88.99
31483;BME280;18103;52.246;8.052;2023-03-21T11:40:04;100190.34;;;10.28;88.87
31483;BME280;18103;52.246;8.052;2023-03-21T11:42:32;100185.06;;;10.28;89.20
31483;BME280;18103;52.246;8.052;2023-03-21T11:45:26;100180.53;;;10.30;88.89
31483;BME280;18103;52.246;8.052;2023-03-21T11:47:53;100178.72;;;10.31;88.81
31483;BME280;18103;52.246;8.052;2023-03-21T11:56:15;100177.06;;;10.41;88.35
31483;BME280;18103;52.246;8.052;2023-03-21T12:06:36;100165.16;;;10.47;88.19
31483;BME280;18103;52.246;8.052;2023-03-21T12:09:32;100155.59;;;10.34;88.62
31483;BME280;18103;52.246;8.052;2023-03-21T12:15:17;100148.72;;;10.43;88.79
31483;BME280;18103;52.246;8.052;2023-03-21T12:20:43;100149.38;;;10.35;88.96
31483;BME280;18103;52.246;8.052;2023-03-21T12:37:37;100136.84;;;10.49;89.05
31483;BME280;18103;52.246;8.052;2023-03-21T12:45:59;100127.41;;;10.35;89.50
31483;BME280;18103;52.246;8.052;2023-03-21T12:48:48;100112.44;;;10.35;89.09
31483;BME280;18103;52.246;8.052;2023-03-21T12:51:25;100109.41;;;10.40;89.32
31483;BME280;18103;52.246;8.052;2023-03-21T12:54:01;100121.75;;;10.51;88.84
31483;BME280;18103;52.246;8.052;2023-03-21T12:56:49;100114.03;;;10.48;88.88
31483;BME280;18103;52.246;8.052;2023-03-21T12:59:36;100108.06;;;10.46;89.25
31483;BME280;18103;52.246;8.052;2023-03-21T13:02:21;100103.88;;;10.32;88.61
31483;BME280;18103;52.246;8.052;2023-03-21T13:07:36;100099.19;;;10.47;89.13
31483;BME280;18103;52.246;8.052;2023-03-21T13:10:12;100107.13;;;10.47;88.40
31483;BME280;18103;52.246;8.052;2023-03-21T13:12:54;100086.13;;;10.45;87.82
31483;BME280;18103;52.246;8.052;2023-03-21T13:23:38;100075.91;;;10.73;88.10
31483;BME280;18103;52.246;8.052;2023-03-21T13:26:08;100081.84;;;10.86;87.61
31483;BME280;18103;52.246;8.052;2023-03-21T13:28:38;100079.66;;;10.91;87.38
31483;BME280;18103;52.246;8.052;2023-03-21T13:31:19;100065.59;;;10.70;87.52
31483;BME280;18103;52.246;8.052;2023-03-21T13:33:47;100058.72;;;10.78;86.88
31483;BME280;18103;52.246;8.052;2023-03-21T13:36:37;100056.44;;;10.95;87.87
31483;BME280;18103;52.246;8.052;2023-03-21T13:39:04;100054.41;;;10.99;86.59
31483;BME280;18103;52.246;8.052;2023-03-21T13:59:16;100021.34;;;11.04;84.78
31483;BME280;18103;52.246;8.052;2023-03-21T14:05:03;100018.72;;;11.04;84.23
31483;BME280;18103;52.246;8.052;2023-03-21T14:07:52;100029.44;;;11.12;84.21
31483;BME280;18103;52.246;8.052;2023-03-21T14:12:50;100019.31;;;11.18;83.66
31483;BME280;18103;52.246;8.052;2023-03-21T14:15:20;100016.38;;;11.11;84.02
31483;BME280;18103;52.246;8.052;2023-03-21T14:17:58;100011.47;;;11.06;84.00
31483;BME280;18103;52.246;8.052;2023-03-21T14:20:27;100005.38;;;11.06;84.40
31483;BME280;18103;52.246;8.052;2023-03-21T14:22:56;100016.56;;;10.98;84.50
31483;BME280;18103;52.246;8.052;2023-03-21T14:25:24;100004.13;;;11.10;84.33
31483;BME280;18103;52.246;8.052;2023-03-21T14:27:53;100006.88;;;10.99;84.45
31483;BME280;18103;52.246;8.052;2023-03-21T14:33:02;99987.88;;;11.15;84.01
31483;BME280;18103;52.246;8.052;2023-03-21T14:35:31;99989.84;;;11.12;84.91
31483;BME280;18103;52.246;8.052;2023-03-21T14:38:05;99976.63;;;11.12;84.74
31483;BME280;18103;52.246;8.052;2023-03-21T14:40:33;99977.28;;;11.05;84.11
31483;BME280;18103;52.246;8.052;2023-03-21T14:43:04;99986.50;;;11.20;83.78
31483;BME280;18103;52.246;8.052;2023-03-21T14:45:33;99970.31;;;11.35;84.10
31483;BME280;18103;52.246;8.052;2023-03-21T14:48:09;99971.25;;;11.24;84.56
31483;BME280;18103;52.246;8.052;2023-03-21T14:53:05;99960.94;;;11.21;84.29
31483;BME280;18103;52.246;8.052;2023-03-21T14:55:31;99951.88;;;11.23;84.91
31483;BME280;18103;52.246;8.052;2023-03-21T14:57:57;99939.41;;;11.25;84.43
31483;BME280;18103;52.246;8.052;2023-03-21T15:00:26;99937.56;;;11.26;84.07
31483;BME280;18103;52.246;8.052;2023-03-21T15:02:57;99939.28;;;11.37;84.24
31483;BME280;18103;52.246;8.052;2023-03-21T15:05:36;99938.72;;;11.43;84.30
31483;BME280;18103;52.246;8.052;2023-03-21T15:10:38;99946.34;;;11.26;84.11
31483;BME280;18103;52.246;8.052;2023-03-21T15:13:17;99939.09;;;11.19;83.95
31483;BME280;18103;52.246;8.052;2023-03-21T15:15:44;99935.09;;;11.34;84.39
31483;BME280;18103;52.246;8.052;2023-03-21T15:18:14;99939.25;;;11.27;84.31
31483;BME280;18103;52.246;8.052;2023-03-21T15:20:41;99928.41;;;11.30;83.83
31483;BME280;18103;52.246;8.052;2023-03-21T15:23:12;99931.63;;;11.34;84.02
31483;BME280;18103;52.246;8.052;2023-03-21T15:25:42;99930.38;;;11.38;84.01
31483;BME280;18103;52.246;8.052;2023-03-21T15:28:12;99925.78;;;11.40;83.62
31483;BME280;18103;52.246;8.052;2023-03-21T15:30:49;99936.53;;;11.48;83.72
31483;BME280;18103;52.246;8.052;2023-03-21T15:33:16;99934.97;;;11.45;82.81
31483;BME280;18103;52.246;8.052;2023-03-21T15:35:44;99941.50;;;11.41;82.97
31483;BME280;18103;52.246;8.052;2023-03-21T15:38:33;99937.47;;;11.47;82.14